Time;durP1;ratioP1;P1;durP2;ratioP2;P2;SDS_P1;SDS_P2;PMS_P1;PMS_P2;Temp;Humidity;BMP_temperature;BMP_pressure;BME280_temperature;BME280_humidity;BME280_pressure;Samples;Min_cycle;Max_cycle;Signal;HPM_P1;HPM_P2
2022/12/20 10:20:13;;;;;;;7.80;4.68;;;;;;;14.69;40.76;96496.44;2114705;22;20423;-50
2022/12/20 10:21:23;;;;;;;6.40;4.32;;;;;;;14.46;41.06;96501.13;2104414;28;20041;-49
2022/12/20 10:22:27;;;;;;;7.10;4.45;;;;;;;14.32;40.79;96498.41;2106220;28;20067;-50
2022/12/20 10:23:32;;;;;;;6.47;4.30;;;;;;;14.23;41.58;96499.75;2105148;28;20059;-49
2022/12/20 10:24:34;;;;;;;6.70;4.35;;;;;;;14.19;41.31;96500.84;2105173;28;20044;-50
2022/12/20 10:25:35;;;;;;;7.32;4.95;;;;;;;14.16;41.43;96498.41;2113860;28;20509;-50
2022/12/20 10:26:36;;;;;;;7.65;4.78;;;;;;;14.15;41.72;96501.09;2104327;28;20044;-48
2022/12/20 10:27:41;;;;;;;7.65;5.28;;;;;;;14.15;41.88;96501.09;2103955;28;20052;-48
2022/12/20 10:28:42;;;;;;;7.95;4.75;;;;;;;14.13;41.77;96502.00;2105024;28;20070;-50
2022/12/20 10:29:44;;;;;;;7.18;4.90;;;;;;;14.15;41.65;96496.72;2105072;28;20029;-50
2022/12/20 10:30:45;;;;;;;7.57;4.90;;;;;;;14.15;41.87;96486.28;2104305;28;20059;-50
2022/12/20 10:31:57;;;;;;;6.35;4.40;;;;;;;14.16;41.87;96497.56;2105139;28;20048;-50
2022/12/20 10:32:59;;;;;;;6.07;4.20;;;;;;;14.16;41.88;96501.00;2096657;28;20044;-50
2022/12/20 10:34:00;;;;;;;6.65;4.82;;;;;;;14.15;41.73;96488.03;2088862;28;20404;-48
2022/12/20 10:35:10;;;;;;;5.88;4.57;;;;;;;14.16;42.16;96490.56;2104344;28;20423;-48
2022/12/20 10:36:27;;;;;;;8.32;4.43;;;;;;;14.16;41.75;96487.94;2113264;28;20048;-48
2022/12/20 10:37:28;;;;;;;7.40;4.85;;;;;;;14.17;41.96;96480.97;2116758;28;20050;-48
2022/12/20 10:38:42;;;;;;;7.90;4.80;;;;;;;14.16;41.88;96476.66;2104316;28;20482;-50
2022/12/20 10:39:46;;;;;;;7.22;5.10;;;;;;;14.17;41.81;96478.38;2097684;28;20048;-51
2022/12/20 10:40:53;;;;;;;6.65;4.97;;;;;;;14.18;42.04;96474.81;2098002;28;20053;-51
2022/12/20 10:41:54;;;;;;;5.75;4.55;;;;;;;14.17;41.74;96476.59;2105867;28;20048;-50
2022/12/20 10:42:55;;;;;;;7.28;4.70;;;;;;;14.18;41.87;96472.22;2104678;28;20047;-51
2022/12/20 10:44:01;;;;;;;6.60;4.30;;;;;;;14.18;41.74;96464.38;2104255;28;20115;-50
2022/12/20 10:45:03;;;;;;;6.25;4.55;;;;;;;14.19;41.80;96460.81;2104636;28;20043;-50
2022/12/20 10:46:05;;;;;;;7.15;5.10;;;;;;;14.20;41.72;96467.75;2105139;28;20048;-48
2022/12/20 10:47:21;;;;;;;7.50;5.10;;;;;;;14.20;41.79;96457.31;2113896;28;20042;-48
2022/12/20 10:48:28;;;;;;;7.57;5.32;;;;;;;14.21;41.85;96453.75;2104961;28;20036;-48
2022/12/20 10:49:37;;;;;;;7.22;5.15;;;;;;;14.20;41.40;96460.75;2105668;28;20067;-50
2022/12/20 10:50:38;;;;;;;6.32;4.05;;;;;;;14.22;41.75;96458.03;2113027;28;20056;-51
2022/12/20 10:51:40;;;;;;;8.18;5.13;;;;;;;14.21;41.81;96448.53;2095999;28;20041;-50
2022/12/20 10:52:41;;;;;;;6.82;4.82;;;;;;;14.22;41.89;96448.47;2087976;28;20409;-50
2022/12/20 10:53:59;;;;;;;6.75;4.70;;;;;;;14.22;41.87;96452.81;2096861;28;20057;-50
2022/12/20 10:55:01;;;;;;;8.00;4.97;;;;;;;14.22;41.68;96443.22;2112833;28;20040;-50
2022/12/20 10:56:12;;;;;;;7.18;4.50;;;;;;;14.22;41.73;96440.63;2113730;28;20036;-51
2022/12/20 10:57:19;;;;;;;5.97;4.43;;;;;;;14.23;41.65;96447.53;2116703;28;20043;-50
2022/12/20 10:58:26;;;;;;;6.57;4.47;;;;;;;14.24;42.08;96446.59;2113156;28;20051;-50
2022/12/20 10:59:35;;;;;;;6.13;4.50;;;;;;;14.24;41.39;96443.13;2112971;28;20060;-50
2022/12/20 11:00:37;;;;;;;6.97;4.93;;;;;;;14.24;41.97;96445.75;2095980;28;20045;-50
2022/12/20 11:01:38;;;;;;;6.70;4.57;;;;;;;14.25;41.81;96439.63;2104226;28;20044;-50
2022/12/20 11:02:39;;;;;;;8.20;5.20;;;;;;;14.24;42.14;96438.75;2096367;28;20037;-48
2022/12/20 11:04:01;;;;;;;7.03;4.80;;;;;;;14.26;42.16;96441.28;2095473;28;20056;-48
2022/12/20 11:05:09;;;;;;;6.45;4.72;;;;;;;14.26;42.04;96438.66;2113922;28;20039;-50
2022/12/20 11:06:14;;;;;;;7.18;4.78;;;;;;;14.26;42.20;96436.06;2103980;28;20048;-50
2022/12/20 11:07:25;;;;;;;6.55;4.57;;;;;;;14.26;41.80;96434.28;2104841;28;20055;-50
2022/12/20 11:08:26;;;;;;;5.90;4.38;;;;;;;14.27;41.70;96433.38;2113185;28;20379;-50
2022/12/20 11:09:34;;;;;;;5.85;4.50;;;;;;;14.27;41.91;96436.00;2113365;28;20063;-50
2022/12/20 11:10:35;;;;;;;6.20;4.72;;;;;;;14.28;41.58;96435.06;2104482;28;20079;-50
2022/12/20 11:11:36;;;;;;;7.13;4.43;;;;;;;14.28;41.37;96423.78;2104505;28;20051;-50
2022/12/20 11:12:38;;;;;;;6.72;4.63;;;;;;;14.28;41.71;96424.59;2112976;28;20048;-51
2022/12/20 11:13:39;;;;;;;5.70;4.30;;;;;;;14.28;41.74;96424.59;2104231;28;20055;-51
2022/12/20 11:14:42;;;;;;;6.80;4.47;;;;;;;14.29;41.72;96420.22;2104032;28;20541;-50
2022/12/20 11:15:47;;;;;;;8.60;4.70;;;;;;;14.29;41.71;96415.00;2104829;28;20044;-50
2022/12/20 11:16:49;;;;;;;6.53;4.70;;;;;;;14.29;41.72;96413.22;2104972;28;20052;-49
2022/12/20 11:17:55;;;;;;;6.05;4.72;;;;;;;14.31;41.94;96415.75;2096009;28;20053;-48
2022/12/20 11:19:14;;;;;;;7.30;4.47;;;;;;;14.31;41.41;96407.91;2089351;28;20508;-50
2022/12/20 11:20:25;;;;;;;7.13;4.95;;;;;;;14.30;41.57;96412.31;2098271;28;20175;-49
2022/12/20 11:21:47;;;;;;;6.75;4.15;;;;;;;14.32;41.79;96404.38;2104339;28;20056;-50
2022/12/20 11:23:17;;;;;;;6.43;4.55;;;;;;;14.32;41.78;96396.53;2104628;28;20056;-50
2022/12/20 11:25:02;;;;;;;6.95;4.95;;;;;;;14.33;41.82;96396.47;2105206;28;20044;-50
2022/12/20 11:26:29;;;;;;;6.05;4.95;;;;;;;14.33;41.62;96393.84;2101263;28;20040;-50
2022/12/20 11:28:05;;;;;;;6.03;4.40;;;;;;;14.34;41.88;96386.84;2095543;28;20049;-50
2022/12/20 11:29:37;;;;;;;5.70;4.38;;;;;;;14.35;41.70;96391.13;2078638;28;20129;-50
2022/12/20 11:30:57;;;;;;;8.43;5.70;;;;;;;14.59;41.51;96378.47;2104348;28;20531;-51
2022/12/20 11:32:15;;;;;;;8.90;5.03;;;;;;;18.67;38.74;96375.56;2099347;28;20040;-50
2022/12/20 11:33:32;;;;;;;8.82;5.25;;;;;;;19.12;39.07;96372.28;2099220;28;20040;-51
2022/12/20 11:34:36;;;;;;;9.45;5.68;;;;;;;19.09;39.40;96365.47;2098394;28;20045;-50
2022/12/20 11:36:10;;;;;;;7.03;4.82;;;;;;;19.21;39.21;96363.69;2098685;28;20052;-50
2022/12/20 11:37:25;;;;;;;8.93;5.47;;;;;;;19.26;39.28;96360.69;2072952;28;20413;-50
2022/12/20 11:38:40;;;;;;;7.88;5.55;;;;;;;19.29;38.77;96355.19;2097551;28;20075;-50
2022/12/20 11:40:05;;;;;;;8.40;5.05;;;;;;;19.30;39.14;96354.22;2099091;28;20044;-50
2022/12/20 11:41:20;;;;;;;6.82;4.68;;;;;;;19.30;38.95;96356.88;2099160;28;20037;-50
2022/12/20 11:42:40;;;;;;;7.53;5.10;;;;;;;19.30;39.20;96349.84;2102268;28;20043;-50
2022/12/20 11:44:01;;;;;;;7.47;5.07;;;;;;;19.31;39.09;96342.75;2099533;28;20376;-50
2022/12/20 11:45:19;;;;;;;7.22;4.63;;;;;;;19.31;38.77;96343.59;2098588;28;20044;-51
2022/12/20 11:46:25;;;;;;;7.70;5.50;;;;;;;19.31;39.16;96348.03;2092505;28;20048;-50
2022/12/20 11:47:48;;;;;;;8.30;5.20;;;;;;;19.31;39.13;96343.59;2098710;28;20044;-50
2022/12/20 11:48:51;;;;;;;8.18;5.10;;;;;;;19.31;47.37;96345.41;2099155;28;20053;-50
2022/12/20 11:50:01;;;;;;;7.45;5.28;;;;;;;19.31;53.80;96351.50;2099153;28;20048;-50
2022/12/20 11:51:21;;;;;;;7.57;4.95;;;;;;;19.32;55.92;96354.97;2099048;28;20483;-50
2022/12/20 11:52:42;;;;;;;6.03;4.20;;;;;;;19.30;56.56;96360.38;2098568;28;20048;-50
2022/12/20 11:54:09;;;;;;;7.15;4.78;;;;;;;19.31;57.07;96355.94;2093077;28;20044;-51
2022/12/20 11:55:26;;;;;;;7.68;5.03;;;;;;;19.30;57.08;96352.47;2085749;28;20041;-50
2022/12/20 11:56:36;;;;;;;7.30;5.18;;;;;;;19.31;57.07;96348.03;2088249;28;20052;-50
2022/12/20 11:57:44;;;;;;;6.68;4.82;;;;;;;19.30;57.42;96341.94;2090744;28;20052;-50
2022/12/20 11:58:56;;;;;;;7.03;5.18;;;;;;;19.31;57.63;96342.75;2095780;28;20059;-50
2022/12/20 11:59:59;;;;;;;7.30;5.32;;;;;;;19.31;57.83;96345.41;2089880;28;20052;-49
2022/12/20 12:01:03;;;;;;;6.15;4.85;;;;;;;19.32;57.62;96347.06;2082149;28;20060;-51
2022/12/20 12:02:30;;;;;;;6.82;4.90;;;;;;;19.31;57.62;96355.94;2082505;28;20440;-50
2022/12/20 12:03:37;;;;;;;7.32;4.85;;;;;;;19.31;57.94;96337.50;2088853;28;20056;-50
2022/12/20 12:04:56;;;;;;;7.10;5.15;;;;;;;19.30;57.79;96330.53;2095006;28;20056;-50
2022/12/20 12:06:03;;;;;;;8.38;5.07;;;;;;;19.31;57.99;96337.50;2081927;28;20045;-51
2022/12/20 12:07:27;;;;;;;8.13;5.18;;;;;;;19.31;58.03;96330.44;2077195;28;20552;-50
2022/12/20 12:08:52;;;;;;;6.82;4.68;;;;;;;19.30;58.44;96331.41;2085780;28;20052;-50
2022/12/20 12:10:15;;;;;;;6.57;4.80;;;;;;;19.30;58.07;96326.13;2085722;28;20056;-50
2022/12/20 12:11:23;;;;;;;6.97;4.93;;;;;;;19.31;58.09;96313.81;2095162;28;20059;-50
2022/12/20 12:12:32;;;;;;;9.77;5.03;;;;;;;19.32;58.29;96315.47;2098728;28;20496;-50
2022/12/20 12:13:35;;;;;;;7.18;4.70;;;;;;;19.32;58.23;96312.84;2097904;28;20045;-50
2022/12/20 12:14:57;;;;;;;6.80;4.80;;;;;;;19.31;58.23;96327.78;2082289;28;20238;-50
2022/12/20 12:16:10;;;;;;;7.82;4.70;;;;;;;19.31;61.26;96333.06;2095870;28;20050;-50
2022/12/20 12:17:16;;;;;;;8.70;5.28;;;;;;;19.32;64.78;96323.38;2104382;28;20519;-50
2022/12/20 12:18:19;;;;;;;8.05;5.05;;;;;;;19.31;66.88;96312.00;2089863;28;20037;-50
2022/12/20 12:19:21;;;;;;;7.55;5.25;;;;;;;19.32;68.57;96318.09;2090740;28;20053;-50
2022/12/20 12:20:44;;;;;;;9.55;5.75;;;;;;;19.32;69.71;96326.00;2089502;28;20044;-50
2022/12/20 12:21:48;;;;;;;11.52;7.57;;;;;;;19.32;70.54;96328.63;2093100;28;20060;-50
2022/12/20 12:22:51;;;;;;;8.88;6.45;;;;;;;19.32;71.16;96318.94;2090003;28;20057;-50
2022/12/20 12:24:10;;;;;;;7.82;6.20;;;;;;;19.31;71.65;96324.34;2081272;28;20060;-50
2022/12/20 12:25:14;;;;;;;9.07;5.97;;;;;;;19.31;72.14;96317.25;2101489;28;20040;-50
2022/12/20 12:26:28;;;;;;;8.35;5.55;;;;;;;19.31;72.50;96327.78;2096723;28;20067;-50
2022/12/20 12:27:29;;;;;;;9.55;6.07;;;;;;;19.33;72.70;96327.69;2098491;28;20052;-50
2022/12/20 12:28:31;;;;;;;10.15;6.13;;;;;;;19.32;72.91;96331.25;2098504;28;20052;-50
2022/12/20 12:29:32;;;;;;;9.02;5.60;;;;;;;19.32;73.06;96328.63;2097715;28;20040;-50
2022/12/20 12:30:38;;;;;;;7.75;5.30;;;;;;;19.33;73.34;96327.69;2099229;28;20055;-50
2022/12/20 12:32:01;;;;;;;7.85;5.72;;;;;;;19.32;73.60;96323.38;2097625;28;20044;-50
2022/12/20 12:33:04;;;;;;;8.20;5.07;;;;;;;19.33;73.83;96331.16;2085209;28;20037;-50
2022/12/20 12:34:11;;;;;;;7.80;5.22;;;;;;;19.32;73.98;96324.19;2082166;28;20393;-50
2022/12/20 12:35:28;;;;;;;8.38;5.70;;;;;;;19.32;74.14;96320.72;2082614;28;20036;-50
2022/12/20 12:37:02;;;;;;;7.18;5.18;;;;;;;19.32;74.70;96311.03;2092519;28;20052;-50
2022/12/20 12:38:23;;;;;;;8.98;5.28;;;;;;;19.31;74.66;96306.72;2095996;28;20044;-50
2022/12/20 12:39:39;;;;;;;8.77;5.70;;;;;;;19.32;74.49;96318.09;2096154;28;20040;-49
2022/12/20 12:40:53;;;;;;;6.05;4.57;;;;;;;19.31;75.12;96311.16;2088690;28;20056;-50
2022/12/20 12:42:10;;;;;;;6.85;5.05;;;;;;;19.31;75.08;96321.69;2090057;28;20049;-51
2022/12/20 12:43:39;;;;;;;7.68;4.90;;;;;;;19.33;75.20;96317.16;2079962;28;20045;-48
2022/12/20 12:44:55;;;;;;;9.32;5.70;;;;;;;19.32;75.45;96304.94;2084722;28;20053;-48
2022/12/20 12:45:59;;;;;;;8.60;5.75;;;;;;;19.32;75.69;96312.84;2089728;28;20139;-50
2022/12/20 12:47:04;;;;;;;8.70;5.30;;;;;;;19.31;75.82;96317.25;2089424;28;20068;-51
2022/12/20 12:48:11;;;;;;;6.90;5.10;;;;;;;19.32;76.15;96324.19;2080351;28;20033;-51
2022/12/20 12:49:15;;;;;;;8.20;5.38;;;;;;;19.31;76.23;96321.69;2081806;28;20330;-51
2022/12/20 12:50:36;;;;;;;7.20;5.18;;;;;;;19.32;76.27;96328.63;2089269;28;20052;-49
2022/12/20 12:51:38;;;;;;;6.35;4.93;;;;;;;19.33;76.12;96325.06;2097389;28;20485;-51
2022/12/20 12:52:42;;;;;;;8.02;5.47;;;;;;;19.32;76.55;96320.72;2097159;28;20049;-51
2022/12/20 12:53:49;;;;;;;6.80;5.20;;;;;;;19.32;76.73;96318.09;2089018;28;20053;-51
2022/12/20 12:54:50;;;;;;;7.88;5.03;;;;;;;19.32;76.89;96318.94;2082250;28;20053;-51
2022/12/20 12:55:52;;;;;;;8.15;5.55;;;;;;;19.32;76.73;96311.03;2082399;28;20377;-51
2022/12/20 12:57:01;;;;;;;9.48;5.78;;;;;;;19.33;77.30;96312.72;2089302;28;20515;-51
2022/12/20 12:58:23;;;;;;;9.15;5.43;;;;;;;19.33;77.25;96314.53;2090352;28;20044;-51
2022/12/20 12:59:33;;;;;;;7.13;5.50;;;;;;;19.32;77.31;96302.28;2090430;28;20041;-50
2022/12/20 13:01:07;;;;;;;7.65;5.55;;;;;;;19.33;77.47;96317.16;2090267;28;20041;-51
2022/12/20 13:02:14;;;;;;;9.13;5.32;;;;;;;19.33;77.44;96322.44;2090428;28;20057;-50
2022/12/20 13:03:33;;;;;;;6.70;4.97;;;;;;;19.32;77.54;96312.84;2090306;28;20048;-50
2022/12/20 13:05:05;;;;;;;6.85;5.35;;;;;;;19.32;77.64;96307.56;2090617;28;20048;-51
2022/12/20 13:06:24;;;;;;;8.00;5.35;;;;;;;19.32;77.85;96315.47;2090542;28;20040;-50
2022/12/20 13:07:25;;;;;;;7.30;5.20;;;;;;;19.32;77.96;96307.56;2090606;28;20399;-50
2022/12/20 13:08:46;;;;;;;7.13;5.22;;;;;;;19.32;78.07;96311.03;2090261;28;20052;-51
2022/12/20 13:09:47;;;;;;;7.28;5.20;;;;;;;19.33;78.05;96307.47;2090835;28;20059;-50
2022/12/20 13:10:48;;;;;;;7.85;5.45;;;;;;;19.32;78.22;96304.94;2090667;28;20049;-51
2022/12/20 13:11:49;;;;;;;7.03;5.53;;;;;;;19.32;78.21;96304.94;2090755;28;20454;-51
2022/12/20 13:12:50;;;;;;;7.63;5.22;;;;;;;19.32;78.25;96297.88;2089977;28;20543;-49
2022/12/20 13:14:17;;;;;;;6.75;5.03;;;;;;;19.32;78.32;96289.13;2089871;28;20037;-48
2022/12/20 13:15:18;;;;;;;8.13;5.65;;;;;;;19.33;78.51;96296.09;2089398;28;20511;-50
2022/12/20 13:16:26;;;;;;;7.35;5.55;;;;;;;19.31;78.42;96298.00;2089840;28;20041;-51
2022/12/20 13:17:27;;;;;;;9.65;5.38;;;;;;;19.33;78.77;96293.47;2090770;28;20376;-50
2022/12/20 13:18:28;;;;;;;6.68;4.95;;;;;;;19.31;78.81;96298.84;2089438;28;20114;-50
2022/12/20 13:19:33;;;;;;;7.32;5.22;;;;;;;19.31;78.68;96298.84;2081034;28;20061;-51
2022/12/20 13:20:34;;;;;;;6.68;4.97;;;;;;;19.32;78.87;96300.50;2088666;28;20111;-50
2022/12/20 13:21:35;;;;;;;6.63;4.88;;;;;;;19.32;78.81;96289.97;2089775;28;20053;-50
2022/12/20 13:22:36;;;;;;;6.43;5.13;;;;;;;19.32;79.10;96299.66;2089234;28;20075;-51
2022/12/20 13:23:37;;;;;;;8.27;5.30;;;;;;;19.32;79.08;96291.75;2081662;28;20053;-51
2022/12/20 13:24:57;;;;;;;7.13;5.38;;;;;;;19.32;79.08;96292.59;2089549;28;20060;-50
2022/12/20 13:25:58;;;;;;;6.45;4.97;;;;;;;19.31;79.23;96290.94;2090539;28;20044;-50
2022/12/20 13:26:59;;;;;;;8.88;5.55;;;;;;;19.31;79.13;96288.31;2081435;28;20037;-51
2022/12/20 13:28:23;;;;;;;7.53;5.50;;;;;;;19.32;78.99;96295.22;2081663;28;20041;-51
2022/12/20 13:29:34;;;;;;;7.68;5.78;;;;;;;19.32;79.41;96294.41;2087311;28;20056;-49
2022/12/20 13:30:35;;;;;;;6.75;5.20;;;;;;;19.31;79.33;96296.19;2091002;28;20049;-49
2022/12/20 13:31:36;;;;;;;7.78;5.80;;;;;;;19.32;79.25;96297.88;2089543;28;20329;-50
2022/12/20 13:32:46;;;;;;;7.15;5.55;;;;;;;19.32;79.02;96304.94;2089961;28;20037;-51
2022/12/20 13:33:48;;;;;;;6.70;5.00;;;;;;;19.31;79.29;96284.84;2090635;28;20503;-50
2022/12/20 13:34:49;;;;;;;7.97;5.43;;;;;;;19.32;79.39;96294.41;2090102;28;20060;-51
2022/12/20 13:35:57;;;;;;;7.05;5.53;;;;;;;19.32;79.45;96307.56;2090348;28;20041;-50
2022/12/20 13:36:58;;;;;;;7.55;5.65;;;;;;;19.32;79.46;96299.66;2090461;28;20048;-51
2022/12/20 13:38:22;;;;;;;6.22;4.78;;;;;;;19.32;79.23;96302.28;2090293;28;20059;-51
2022/12/20 13:39:23;;;;;;;7.68;5.50;;;;;;;19.32;79.61;96297.03;2089141;28;20056;-50
2022/12/20 13:40:59;;;;;;;8.10;5.72;;;;;;;19.33;79.62;96293.47;2089738;28;20098;-51
2022/12/20 13:42:29;;;;;;;6.88;5.20;;;;;;;19.32;79.78;96279.44;2088845;28;20045;-51
2022/12/20 13:43:34;;;;;;;7.03;5.03;;;;;;;19.32;79.42;96276.81;2087672;28;20048;-51
2022/12/20 13:44:40;;;;;;;8.38;6.05;;;;;;;19.32;79.68;96284.69;2076466;28;20443;-50
2022/12/20 13:45:42;;;;;;;8.93;6.35;;;;;;;19.33;79.43;96280.28;2082692;28;20037;-51
2022/12/20 13:47:06;;;;;;;6.65;5.05;;;;;;;19.31;79.87;96272.50;2081432;28;20049;-50
2022/12/20 13:48:07;;;;;;;7.47;5.90;;;;;;;19.31;79.87;96267.25;2087753;28;20051;-50
2022/12/20 13:49:10;;;;;;;8.73;6.20;;;;;;;19.32;79.80;96265.44;2097607;28;20044;-50
2022/12/20 13:50:27;;;;;;;8.25;5.90;;;;;;;19.32;79.80;96257.53;2089731;28;20056;-50
2022/12/20 13:51:30;;;;;;;7.47;5.32;;;;;;;19.33;79.80;96267.13;2089918;28;20044;-50
2022/12/20 13:52:32;;;;;;;9.48;5.70;;;;;;;19.33;79.67;96256.59;2090039;28;20063;-51
2022/12/20 13:53:34;;;;;;;8.63;6.22;;;;;;;19.32;79.61;96255.72;2089935;28;20407;-51
2022/12/20 13:54:42;;;;;;;8.75;6.40;;;;;;;19.31;80.05;96250.59;2089893;28;20517;-51
2022/12/20 13:55:44;;;;;;;11.17;5.83;;;;;;;19.32;79.92;96265.44;2089937;28;20049;-50
2022/12/20 13:56:48;;;;;;;8.80;6.07;;;;;;;19.32;79.81;96233.84;2089386;28;20057;-50
2022/12/20 13:57:49;;;;;;;8.95;6.55;;;;;;;19.32;79.93;96253.09;2081755;28;20049;-50
2022/12/20 13:58:51;;;;;;;9.07;6.32;;;;;;;19.32;79.76;96252.28;2089738;28;20048;-51
2022/12/20 13:59:53;;;;;;;8.68;6.10;;;;;;;19.32;79.44;96265.44;2089220;28;20429;-50
2022/12/20 14:01:03;;;;;;;9.77;6.47;;;;;;;19.32;79.78;96255.72;2081478;28;20045;-50
2022/12/20 14:02:09;;;;;;;7.53;5.75;;;;;;;19.32;79.60;96257.53;2089059;28;20053;-50
2022/12/20 14:03:28;;;;;;;9.40;6.32;;;;;;;19.33;79.87;96262.69;2089967;28;20516;-50
2022/12/20 14:04:43;;;;;;;9.48;6.30;;;;;;;19.32;80.04;96249.63;2083766;28;20045;-51
2022/12/20 14:05:44;;;;;;;8.98;6.47;;;;;;;19.31;80.31;96251.44;2083133;28;20041;-51
2022/12/20 14:06:52;;;;;;;11.02;7.20;;;;;;;19.33;80.08;96256.59;2081246;28;20480;-50
2022/12/20 14:07:59;;;;;;;8.82;6.50;;;;;;;19.32;79.93;96265.44;2081866;28;20053;-51
2022/12/20 14:09:00;;;;;;;9.15;7.05;;;;;;;19.31;79.73;96261.97;2081361;28;20049;-50
2022/12/20 14:10:03;;;;;;;7.85;6.00;;;;;;;19.32;80.12;96244.38;2080684;28;20041;-51
2022/12/20 14:11:25;;;;;;;8.85;6.78;;;;;;;19.32;80.42;96232.03;2089512;28;20045;-51
2022/12/20 14:12:27;;;;;;;8.63;6.70;;;;;;;19.33;80.17;96243.44;2089304;28;20045;-50
2022/12/20 14:13:28;;;;;;;11.00;7.45;;;;;;;19.32;79.88;96236.47;2089335;28;20045;-51
2022/12/20 14:14:29;;;;;;;8.50;6.65;;;;;;;19.31;80.39;96254.06;2090535;28;20049;-51
2022/12/20 14:15:33;;;;;;;10.73;6.95;;;;;;;19.32;80.42;96250.47;2090219;28;20422;-51
2022/12/20 14:16:34;;;;;;;9.52;6.95;;;;;;;19.32;80.26;96244.38;2089812;28;20064;-51
2022/12/20 14:17:35;;;;;;;9.60;6.50;;;;;;;19.31;80.43;96238.28;2089969;28;20081;-51
2022/12/20 14:18:37;;;;;;;10.38;6.93;;;;;;;19.32;80.50;96234.66;2089797;28;20507;-51
2022/12/20 14:19:38;;;;;;;11.43;7.90;;;;;;;19.31;80.43;96248.81;2089013;28;20064;-51
2022/12/20 14:20:39;;;;;;;11.43;7.80;;;;;;;19.32;80.47;96244.38;2089620;28;20044;-50
2022/12/20 14:21:41;;;;;;;11.90;7.97;;;;;;;19.32;80.39;96254.91;2097389;28;20067;-51
2022/12/20 14:22:49;;;;;;;10.43;7.22;;;;;;;19.31;80.60;96256.72;2089848;28;20048;-50
2022/12/20 14:23:51;;;;;;;10.40;7.65;;;;;;;19.32;80.60;96260.16;2090523;28;20044;-51
2022/12/20 14:24:52;;;;;;;10.68;8.07;;;;;;;19.32;80.74;96265.44;2097337;28;20486;-50
2022/12/20 14:25:57;;;;;;;10.05;7.60;;;;;;;19.31;80.41;96264.59;2089521;28;20049;-50
2022/12/20 14:26:59;;;;;;;12.25;7.90;;;;;;;19.32;80.82;96282.06;2081503;28;20049;-49
2022/12/20 14:28:00;;;;;;;10.38;6.95;;;;;;;19.31;80.78;96298.00;2089521;28;20052;-51
2022/12/20 14:29:03;;;;;;;11.00;7.22;;;;;;;19.31;80.59;96287.47;2081220;28;20120;-50
2022/12/20 14:30:04;;;;;;;9.55;7.38;;;;;;;19.32;80.68;96294.41;2081146;28;20057;-50
2022/12/20 14:31:07;;;;;;;11.50;7.75;;;;;;;19.32;80.59;96291.75;2081725;28;20496;-51
2022/12/20 14:32:17;;;;;;;10.30;6.93;;;;;;;19.32;80.59;96291.75;2081446;28;20049;-51
2022/12/20 14:33:29;;;;;;;10.32;7.30;;;;;;;19.32;80.36;96284.69;2074481;28;20046;-51
2022/12/20 14:34:31;;;;;;;10.25;7.20;;;;;;;19.31;80.12;96285.66;2082209;28;20428;-50
2022/12/20 14:35:32;;;;;;;9.00;7.38;;;;;;;19.31;80.27;96275.13;2080221;28;20060;-51
2022/12/20 14:36:34;;;;;;;12.52;7.68;;;;;;;19.32;80.25;96273.34;2080956;28;20512;-51
2022/12/20 14:37:36;;;;;;;10.75;7.38;;;;;;;19.33;80.15;96290.84;2089965;28;20049;-50
2022/12/20 14:38:37;;;;;;;10.38;7.10;;;;;;;19.34;80.17;96288.06;2089089;28;20053;-50
2022/12/20 14:39:38;;;;;;;10.93;7.60;;;;;;;19.31;79.92;96276.94;2081362;28;20504;-50
2022/12/20 14:40:40;;;;;;;8.65;6.85;;;;;;;19.32;79.92;96273.34;2089442;28;20041;-50
2022/12/20 14:41:42;;;;;;;10.05;6.78;;;;;;;19.31;79.69;96269.03;2090029;28;20067;-50
2022/12/20 14:42:44;;;;;;;9.98;7.43;;;;;;;19.32;79.93;96268.06;2089438;28;20095;-50
2022/12/20 14:43:53;;;;;;;9.20;7.18;;;;;;;19.32;79.82;96255.72;2080201;28;20459;-50
2022/12/20 14:45:13;;;;;;;10.48;6.97;;;;;;;19.32;79.79;96254.91;2082362;28;20041;-50
2022/12/20 14:46:18;;;;;;;13.70;6.90;;;;;;;19.32;79.60;96257.53;2089375;28;20044;-51
2022/12/20 14:47:24;;;;;;;10.20;7.07;;;;;;;19.32;79.75;96254.91;2081165;28;20034;-50
2022/12/20 14:48:26;;;;;;;8.93;6.60;;;;;;;19.32;79.38;96253.09;2082419;28;20060;-50
2022/12/20 14:49:35;;;;;;;10.07;7.35;;;;;;;19.32;79.47;96252.28;2096961;28;20529;-50
2022/12/20 14:50:36;;;;;;;;;;;;;;;19.31;79.57;96254.06;2089344;28;20056;-51
2022/12/20 14:51:37;;;;;;;10.02;7.13;;;;;;;19.31;79.62;96256.72;2089529;28;20036;-51
2022/12/20 14:52:38;;;;;;;9.68;6.65;;;;;;;19.31;79.45;96250.59;2089243;28;20060;-51
2022/12/20 14:53:39;;;;;;;9.30;6.75;;;;;;;19.30;79.57;96235.75;2064807;28;20069;-51
2022/12/20 14:54:46;;;;;;;9.68;6.80;;;;;;;19.30;79.26;96249.78;2072757;28;20046;-51
2022/12/20 14:55:47;;;;;;;10.95;7.40;;;;;;;19.31;79.35;96240.91;2080387;28;20049;-50
2022/12/20 14:56:49;;;;;;;9.52;7.18;;;;;;;19.31;79.38;96247.97;2080438;28;20050;-50
2022/12/20 14:57:52;;;;;;;10.25;7.20;;;;;;;19.31;79.32;96238.28;2088208;28;20049;-50
2022/12/20 14:59:15;;;;;;;7.88;6.45;;;;;;;19.31;79.29;96233.00;2081045;28;20061;-50
2022/12/20 15:00:16;;;;;;;9.45;6.47;;;;;;;19.30;79.50;96233.97;2088396;28;20041;-51
2022/12/20 15:01:19;;;;;;;7.97;6.15;;;;;;;19.32;79.37;96241.75;2088793;28;20048;-50
2022/12/20 15:02:29;;;;;;;8.50;6.43;;;;;;;19.32;79.28;96233.84;2089236;28;20053;-50
2022/12/20 15:03:30;;;;;;;;;;;;;;;19.31;79.25;96237.44;2088848;28;20052;-51
2022/12/20 15:04:32;;;;;;;10.75;7.03;;;;;;;19.32;79.54;96244.38;2087905;28;20307;-51
2022/12/20 15:05:34;;;;;;;8.57;6.43;;;;;;;19.32;79.27;96254.91;2088733;28;20060;-50
2022/12/20 15:06:44;;;;;;;8.85;6.68;;;;;;;19.32;79.32;96249.63;2090056;28;20052;-51
2022/12/20 15:07:45;;;;;;;8.82;6.80;;;;;;;19.31;79.07;96237.44;2090368;28;20044;-51
2022/12/20 15:08:46;;;;;;;8.18;6.22;;;;;;;19.31;79.25;96240.91;2090640;28;20492;-50
2022/12/20 15:09:47;;;;;;;9.30;6.53;;;;;;;19.31;79.39;96243.53;2090620;28;20048;-50
2022/12/20 15:11:07;;;;;;;8.18;6.65;;;;;;;19.32;79.30;96260.16;2090113;28;20056;-51
2022/12/20 15:12:09;;;;;;;9.10;6.45;;;;;;;19.31;78.99;96233.00;2091261;28;20033;-51
2022/12/20 15:13:20;;;;;;;10.02;7.00;;;;;;;19.31;79.23;96243.53;2090645;28;20064;-50
2022/12/20 15:14:35;;;;;;;9.20;6.85;;;;;;;19.30;79.13;96235.75;2091062;28;20044;-50
2022/12/20 15:15:36;;;;;;;7.72;6.28;;;;;;;19.31;79.20;96242.72;2091463;28;20055;-51
2022/12/20 15:16:44;;;;;;;8.57;6.60;;;;;;;19.32;79.18;96249.63;2090684;28;20052;-51
2022/12/20 15:17:46;;;;;;;8.30;6.65;;;;;;;19.31;79.08;96238.28;2082855;28;20053;-51
2022/12/20 15:19:02;;;;;;;10.18;6.45;;;;;;;19.32;79.09;96231.22;2090586;28;20053;-50
2022/12/20 15:20:04;;;;;;;8.55;6.75;;;;;;;19.31;79.02;96234.81;2095710;28;20048;-50
2022/12/20 15:21:10;;;;;;;9.15;6.57;;;;;;;19.33;79.04;96232.91;2081680;28;20053;-50
2022/12/20 15:22:16;;;;;;;7.93;5.93;;;;;;;19.33;78.77;96238.16;2083634;28;20428;-51
2022/12/20 15:23:18;;;;;;;8.30;6.43;;;;;;;19.31;78.77;96248.81;2099382;28;20048;-51
2022/12/20 15:24:22;;;;;;;8.77;6.40;;;;;;;19.32;83.24;96249.63;2090014;28;20492;-51
2022/12/20 15:25:23;;;;;;;9.68;6.13;;;;;;;19.33;87.01;96256.59;2074234;28;20053;-51
2022/12/20 15:26:25;;;;;;;10.90;6.97;;;;;;;19.31;89.00;96254.06;2082232;28;20060;-51
2022/12/20 15:27:26;;;;;;;9.10;6.68;;;;;;;19.33;90.90;96246.06;2099268;28;20048;-51
2022/12/20 15:28:27;;;;;;;9.95;6.80;;;;;;;19.31;91.96;96253.25;2099591;28;20040;-51
2022/12/20 15:29:28;;;;;;;8.65;6.40;;;;;;;19.32;93.09;96260.16;2099597;28;20048;-50
2022/12/20 15:30:29;;;;;;;7.28;5.80;;;;;;;19.32;93.65;96262.81;2099616;28;20036;-51
2022/12/20 15:31:32;;;;;;;8.60;6.40;;;;;;;19.32;94.18;96254.91;2090441;28;20057;-51
2022/12/20 15:32:33;;;;;;;7.60;6.45;;;;;;;19.32;94.54;96244.38;2090928;28;20041;-51
2022/12/20 15:33:34;;;;;;;7.80;5.97;;;;;;;19.32;95.20;96250.47;2099685;28;20521;-51
2022/12/20 15:34:36;;;;;;;7.45;5.72;;;;;;;19.33;95.48;96246.06;2099515;28;20059;-51
2022/12/20 15:35:37;;;;;;;7.75;6.20;;;;;;;19.32;95.77;96245.22;2099546;28;20052;-49
2022/12/20 15:36:38;;;;;;;8.68;6.22;;;;;;;19.31;96.21;96248.81;2099789;28;20035;-51
2022/12/20 15:37:40;;;;;;;7.50;5.97;;;;;;;19.32;96.00;96250.47;2098985;28;20052;-50
2022/12/20 15:38:41;;;;;;;8.55;6.43;;;;;;;19.30;96.33;96241.88;2098959;28;20059;-50
2022/12/20 15:39:42;;;;;;;8.10;6.35;;;;;;;19.32;96.84;96244.38;2099339;28;20040;-51